sensor_id;sensor_type;location;lat;lon;timestamp;pressure;altitude;pressure_sealevel;temperature;humidity
5812;BME280;2932;52.400;9.558;2024-03-17T00:01:57;101753.47;;;12.12;61.17
5812;BME280;2932;52.400;9.558;2024-03-17T00:04:26;101754.59;;;12.19;61.20
5812;BME280;2932;52.400;9.558;2024-03-17T00:06:54;101765.22;;;12.17;60.81
5812;BME280;2932;52.400;9.558;2024-03-17T00:09:20;101765.41;;;11.95;60.93
5812;BME280;2932;52.400;9.558;2024-03-17T00:11:53;101763.28;;;11.92;61.27
5812;BME280;2932;52.400;9.558;2024-03-17T00:14:30;101766.88;;;11.84;61.58
5812;BME280;2932;52.400;9.558;2024-03-17T00:17:03;101765.22;;;11.48;61.97
5812;BME280;2932;52.400;9.558;2024-03-17T00:19:35;101769.75;;;11.35;62.92
5812;BME280;2932;52.400;9.558;2024-03-17T00:22:07;101759.50;;;11.45;62.49
5812;BME280;2932;52.400;9.558;2024-03-17T00:24:40;101762.09;;;11.67;62.67
5812;BME280;2932;52.400;9.558;2024-03-17T00:27:12;101766.34;;;11.64;62.65
5812;BME280;2932;52.400;9.558;2024-03-17T00:29:44;101760.97;;;11.68;62.51
5812;BME280;2932;52.400;9.558;2024-03-17T00:32:15;101763.25;;;11.66;62.61
5812;BME280;2932;52.400;9.558;2024-03-17T00:34:51;101763.28;;;11.83;62.30
5812;BME280;2932;52.400;9.558;2024-03-17T00:37:21;101769.75;;;11.61;62.62
5812;BME280;2932;52.400;9.558;2024-03-17T00:39:55;101766.84;;;11.66;62.62
5812;BME280;2932;52.400;9.558;2024-03-17T00:42:26;101772.72;;;11.48;62.83
5812;BME280;2932;52.400;9.558;2024-03-17T00:44:56;101777.22;;;11.26;63.66
5812;BME280;2932;52.400;9.558;2024-03-17T00:47:28;101776.56;;;11.29;63.82
5812;BME280;2932;52.400;9.558;2024-03-17T00:49:58;101773.63;;;11.17;64.26
5812;BME280;2932;52.400;9.558;2024-03-17T00:58:46;101766.97;;;11.35;64.13
5812;BME280;2932;52.400;9.558;2024-03-17T01:01:41;101760.47;;;11.40;64.11
5812;BME280;2932;52.400;9.558;2024-03-17T01:04:12;101770.06;;;11.34;64.27
5812;BME280;2932;52.400;9.558;2024-03-17T01:06:37;101771.53;;;11.40;64.33
5812;BME280;2932;52.400;9.558;2024-03-17T01:09:11;101756.22;;;11.43;63.92
5812;BME280;2932;52.400;9.558;2024-03-17T01:11:48;101764.34;;;11.30;63.66
5812;BME280;2932;52.400;9.558;2024-03-17T01:14:29;101755.53;;;11.28;63.74
5812;BME280;2932;52.400;9.558;2024-03-17T01:17:20;101755.88;;;11.18;63.74
5812;BME280;2932;52.400;9.558;2024-03-17T01:20:11;101756.50;;;11.15;64.14
5812;BME280;2932;52.400;9.558;2024-03-17T01:22:45;101749.03;;;11.16;63.93
5812;BME280;2932;52.400;9.558;2024-03-17T01:25:16;101747.72;;;11.13;64.07
5812;BME280;2932;52.400;9.558;2024-03-17T01:30:53;101740.03;;;11.10;64.25
5812;BME280;2932;52.400;9.558;2024-03-17T01:33:35;101746.88;;;11.21;64.16
5812;BME280;2932;52.400;9.558;2024-03-17T01:36:03;101747.06;;;11.25;63.70
5812;BME280;2932;52.400;9.558;2024-03-17T01:38:47;101740.50;;;11.03;64.08
5812;BME280;2932;52.400;9.558;2024-03-17T01:41:26;101742.91;;;10.88;64.83
5812;BME280;2932;52.400;9.558;2024-03-17T01:44:15;101742.41;;;10.86;64.65
5812;BME280;2932;52.400;9.558;2024-03-17T01:46:50;101738.81;;;10.77;64.93
5812;BME280;2932;52.400;9.558;2024-03-17T01:49:40;101737.03;;;10.89;64.80
5812;BME280;2932;52.400;9.558;2024-03-17T01:52:15;101740.34;;;11.00;65.07
5812;BME280;2932;52.400;9.558;2024-03-17T01:54:50;101739.38;;;11.05;64.41
5812;BME280;2932;52.400;9.558;2024-03-17T01:57:18;101741.34;;;11.21;64.23
5812;BME280;2932;52.400;9.558;2024-03-17T01:59:54;101727.69;;;11.33;63.88
5812;BME280;2932;52.400;9.558;2024-03-17T02:02:34;101730.13;;;11.61;63.56
5812;BME280;2932;52.400;9.558;2024-03-17T02:05:05;101722.34;;;11.80;63.34
5812;BME280;2932;52.400;9.558;2024-03-17T02:07:43;101730.13;;;12.04;62.69
5812;BME280;2932;52.400;9.558;2024-03-17T02:10:11;101736.31;;;12.27;62.05
5812;BME280;2932;52.400;9.558;2024-03-17T02:12:45;101732.16;;;12.42;61.57
5812;BME280;2932;52.400;9.558;2024-03-17T02:15:23;101739.72;;;12.32;60.56
5812;BME280;2932;52.400;9.558;2024-03-17T02:17:54;101739.09;;;12.27;60.59
5812;BME280;2932;52.400;9.558;2024-03-17T02:20:22;101727.66;;;12.20;60.52
5812;BME280;2932;52.400;9.558;2024-03-17T02:23:16;101728.81;;;12.27;60.46
5812;BME280;2932;52.400;9.558;2024-03-17T02:25:46;101723.25;;;12.27;60.23
5812;BME280;2932;52.400;9.558;2024-03-17T02:30:59;101724.72;;;12.25;60.22
5812;BME280;2932;52.400;9.558;2024-03-17T02:33:54;101719.56;;;11.97;60.36
5812;BME280;2932;52.400;9.558;2024-03-17T02:36:29;101722.34;;;11.89;60.79
5812;BME280;2932;52.400;9.558;2024-03-17T02:39:08;101724.97;;;11.94;60.95
5812;BME280;2932;52.400;9.558;2024-03-17T02:41:59;101725.06;;;12.15;61.13
5812;BME280;2932;52.400;9.558;2024-03-17T02:47:21;101723.94;;;12.07;60.95
5812;BME280;2932;52.400;9.558;2024-03-17T02:49:54;101722.16;;;12.02;60.64
5812;BME280;2932;52.400;9.558;2024-03-17T02:52:30;101720.34;;;12.07;60.51
5812;BME280;2932;52.400;9.558;2024-03-17T02:54:56;101721.50;;;12.06;60.20
5812;BME280;2932;52.400;9.558;2024-03-17T02:57:29;101719.38;;;12.11;60.25
5812;BME280;2932;52.400;9.558;2024-03-17T03:00:12;101714.47;;;12.08;60.09
5812;BME280;2932;52.400;9.558;2024-03-17T03:02:54;101712.88;;;11.98;59.91
5812;BME280;2932;52.400;9.558;2024-03-17T03:05:25;101718.72;;;11.71;60.41
5812;BME280;2932;52.400;9.558;2024-03-17T03:12:01;101728.84;;;12.01;60.20
5812;BME280;2932;52.400;9.558;2024-03-17T03:14:43;101727.56;;;11.82;60.03
5812;BME280;2932;52.400;9.558;2024-03-17T03:17:47;101733.28;;;11.59;60.65
5812;BME280;2932;52.400;9.558;2024-03-17T03:20:23;101733.75;;;11.70;61.20
5812;BME280;2932;52.400;9.558;2024-03-17T03:22:51;101727.53;;;11.64;61.23
5812;BME280;2932;52.400;9.558;2024-03-17T03:25:33;101726.72;;;11.64;61.34
5812;BME280;2932;52.400;9.558;2024-03-17T03:31:11;101724.13;;;11.67;60.80
5812;BME280;2932;52.400;9.558;2024-03-17T03:34:00;101726.59;;;11.78;60.49
5812;BME280;2932;52.400;9.558;2024-03-17T03:36:45;101727.88;;;11.72;60.55
5812;BME280;2932;52.400;9.558;2024-03-17T03:42:09;101729.84;;;11.54;60.54
5812;BME280;2932;52.400;9.558;2024-03-17T03:45:13;101724.28;;;11.62;60.60
5812;BME280;2932;52.400;9.558;2024-03-17T03:47:49;101721.19;;;11.73;60.30
5812;BME280;2932;52.400;9.558;2024-03-17T03:53:44;101726.41;;;11.57;60.17
5812;BME280;2932;52.400;9.558;2024-03-17T03:56:36;101724.78;;;11.56;59.55
5812;BME280;2932;52.400;9.558;2024-03-17T03:59:05;101727.22;;;11.57;59.63
5812;BME280;2932;52.400;9.558;2024-03-17T04:14:38;101724.94;;;11.51;59.04
5812;BME280;2932;52.400;9.558;2024-03-17T04:17:36;101725.41;;;11.61;58.96
5812;BME280;2932;52.400;9.558;2024-03-17T04:20:45;101729.19;;;11.48;58.69
5812;BME280;2932;52.400;9.558;2024-03-17T04:26:47;101723.47;;;11.45;58.69
5812;BME280;2932;52.400;9.558;2024-03-17T04:33:28;101736.31;;;11.32;58.83
5812;BME280;2932;52.400;9.558;2024-03-17T04:35:54;101734.38;;;11.41;58.99
5812;BME280;2932;52.400;9.558;2024-03-17T04:38:28;101735.19;;;11.42;58.97
5812;BME280;2932;52.400;9.558;2024-03-17T04:41:02;101740.59;;;11.55;58.58
5812;BME280;2932;52.400;9.558;2024-03-17T04:44:24;101731.78;;;11.45;58.41
5812;BME280;2932;52.400;9.558;2024-03-17T04:47:30;101740.91;;;11.45;59.07
5812;BME280;2932;52.400;9.558;2024-03-17T04:57:04;101750.66;;;11.34;59.35
5812;BME280;2932;52.400;9.558;2024-03-17T05:07:37;101762.69;;;11.12;60.93
5812;BME280;2932;52.400;9.558;2024-03-17T05:10:27;101765.47;;;11.21;61.01
5812;BME280;2932;52.400;9.558;2024-03-17T05:13:12;101764.19;;;11.27;60.96
5812;BME280;2932;52.400;9.558;2024-03-17T05:19:50;101765.13;;;11.22;60.86
5812;BME280;2932;52.400;9.558;2024-03-17T05:26:19;101759.81;;;11.43;60.68
5812;BME280;2932;52.400;9.558;2024-03-17T05:29:11;101762.91;;;11.42;60.31
5812;BME280;2932;52.400;9.558;2024-03-17T05:34:46;101766.38;;;11.56;59.62
5812;BME280;2932;52.400;9.558;2024-03-17T05:37:18;101777.13;;;11.57;59.19
5812;BME280;2932;52.400;9.558;2024-03-17T05:39:54;101769.63;;;11.49;59.02
5812;BME280;2932;52.400;9.558;2024-03-17T05:42:26;101766.19;;;11.44;59.73
5812;BME280;2932;52.400;9.558;2024-03-17T05:45:11;101770.25;;;11.46;60.33
5812;BME280;2932;52.400;9.558;2024-03-17T05:47:40;101777.28;;;11.52;59.41
5812;BME280;2932;52.400;9.558;2024-03-17T05:50:11;101784.13;;;11.46;59.60
5812;BME280;2932;52.400;9.558;2024-03-17T05:52:43;101784.59;;;11.48;59.50
5812;BME280;2932;52.400;9.558;2024-03-17T05:55:13;101780.59;;;11.80;59.00
5812;BME280;2932;52.400;9.558;2024-03-17T05:57:53;101774.19;;;11.54;59.20
5812;BME280;2932;52.400;9.558;2024-03-17T06:00:24;101784.13;;;11.55;59.31
5812;BME280;2932;52.400;9.558;2024-03-17T06:03:10;101784.94;;;11.64;59.66
5812;BME280;2932;52.400;9.558;2024-03-17T06:05:48;101787.56;;;11.69;59.28
5812;BME280;2932;52.400;9.558;2024-03-17T06:08:23;101782.53;;;11.80;59.20
5812;BME280;2932;52.400;9.558;2024-03-17T06:14:22;101782.34;;;12.02;58.22
5812;BME280;2932;52.400;9.558;2024-03-17T06:23:55;101787.09;;;12.10;58.01
5812;BME280;2932;52.400;9.558;2024-03-17T06:27:09;101782.69;;;12.18;58.17
5812;BME280;2932;52.400;9.558;2024-03-17T06:37:14;101789.47;;;12.46;57.92
5812;BME280;2932;52.400;9.558;2024-03-17T06:46:08;101774.38;;;12.73;57.95
5812;BME280;2932;52.400;9.558;2024-03-17T07:01:26;101772.03;;;13.51;56.91
5812;BME280;2932;52.400;9.558;2024-03-17T07:03:57;101771.19;;;13.72;56.97
5812;BME280;2932;52.400;9.558;2024-03-17T07:13:05;101762.06;;;14.04;56.33
5812;BME280;2932;52.400;9.558;2024-03-17T07:15:56;101759.59;;;14.23;56.31
5812;BME280;2932;52.400;9.558;2024-03-17T07:18:31;101752.78;;;14.33;56.59
5812;BME280;2932;52.400;9.558;2024-03-17T07:21:14;101758.84;;;14.35;56.40
5812;BME280;2932;52.400;9.558;2024-03-17T07:24:21;101762.81;;;14.46;56.12
5812;BME280;2932;52.400;9.558;2024-03-17T07:26:52;101765.09;;;14.77;56.23
5812;BME280;2932;52.400;9.558;2024-03-17T07:29:26;101766.84;;;14.94;56.61
5812;BME280;2932;52.400;9.558;2024-03-17T07:32:02;101762.53;;;14.96;56.51
5812;BME280;2932;52.400;9.558;2024-03-17T07:34:45;101760.22;;;14.98;56.00
5812;BME280;2932;52.400;9.558;2024-03-17T07:37:31;101765.34;;;15.09;55.28
5812;BME280;2932;52.400;9.558;2024-03-17T07:43:05;101765.53;;;15.28;55.19
5812;BME280;2932;52.400;9.558;2024-03-17T07:51:40;101781.56;;;15.55;53.86
5812;BME280;2932;52.400;9.558;2024-03-17T07:54:26;101775.97;;;15.55;54.12
5812;BME280;2932;52.400;9.558;2024-03-17T07:57:03;101776.41;;;15.70;53.82
5812;BME280;2932;52.400;9.558;2024-03-17T07:59:54;101778.38;;;15.81;53.53
5812;BME280;2932;52.400;9.558;2024-03-17T08:02:27;101768.22;;;15.89;53.26
5812;BME280;2932;52.400;9.558;2024-03-17T08:05:18;101774.97;;;15.88;53.07
5812;BME280;2932;52.400;9.558;2024-03-17T08:08:21;101775.44;;;15.90;53.03
5812;BME280;2932;52.400;9.558;2024-03-17T08:10:59;101776.97;;;15.87;53.17
5812;BME280;2932;52.400;9.558;2024-03-17T08:13:41;101769.03;;;15.89;53.32
5812;BME280;2932;52.400;9.558;2024-03-17T08:16:53;101758.97;;;16.00;53.28
5812;BME280;2932;52.400;9.558;2024-03-17T08:19:24;101763.75;;;16.28;53.13
5812;BME280;2932;52.400;9.558;2024-03-17T08:24:43;101760.25;;;16.31;51.89
5812;BME280;2932;52.400;9.558;2024-03-17T08:27:14;101762.69;;;16.32;51.67
5812;BME280;2932;52.400;9.558;2024-03-17T08:29:52;101766.28;;;16.33;51.76
5812;BME280;2932;52.400;9.558;2024-03-17T08:32:26;101757.22;;;16.52;51.68
5812;BME280;2932;52.400;9.558;2024-03-17T08:35:03;101755.88;;;16.61;51.61
5812;BME280;2932;52.400;9.558;2024-03-17T08:37:31;101758.97;;;16.72;51.73
5812;BME280;2932;52.400;9.558;2024-03-17T08:39:57;101754.34;;;16.80;51.38
5812;BME280;2932;52.400;9.558;2024-03-17T08:42:28;101754.91;;;16.70;50.90
5812;BME280;2932;52.400;9.558;2024-03-17T08:45:37;101759.59;;;16.65;50.79
5812;BME280;2932;52.400;9.558;2024-03-17T08:48:03;101758.47;;;16.54;50.78
5812;BME280;2932;52.400;9.558;2024-03-17T08:50:38;101755.94;;;16.49;50.35
5812;BME280;2932;52.400;9.558;2024-03-17T08:53:08;101746.94;;;16.56;51.03
5812;BME280;2932;52.400;9.558;2024-03-17T08:55:46;101742.47;;;16.67;51.22
5812;BME280;2932;52.400;9.558;2024-03-17T08:58:18;101746.38;;;16.78;50.87
5812;BME280;2932;52.400;9.558;2024-03-17T09:00:56;101748.13;;;16.86;50.39
5812;BME280;2932;52.400;9.558;2024-03-17T09:03:38;101747.97;;;16.95;50.16
5812;BME280;2932;52.400;9.558;2024-03-17T09:06:24;101753.19;;;17.12;49.64
5812;BME280;2932;52.400;9.558;2024-03-17T09:08:52;101752.97;;;17.21;49.72
5812;BME280;2932;52.400;9.558;2024-03-17T09:11:20;101745.16;;;17.11;50.40
5812;BME280;2932;52.400;9.558;2024-03-17T09:13:53;101750.56;;;17.19;49.64
5812;BME280;2932;52.400;9.558;2024-03-17T09:16:32;101748.69;;;17.43;49.09
5812;BME280;2932;52.400;9.558;2024-03-17T09:19:05;101749.66;;;17.50;49.03
5812;BME280;2932;52.400;9.558;2024-03-17T09:24:59;101752.66;;;17.96;48.18
5812;BME280;2932;52.400;9.558;2024-03-17T09:27:25;101746.91;;;18.08;47.81
5812;BME280;2932;52.400;9.558;2024-03-17T09:30:20;101753.94;;;17.98;48.02
5812;BME280;2932;52.400;9.558;2024-03-17T09:33:03;101756.56;;;17.91;47.91
5812;BME280;2932;52.400;9.558;2024-03-17T09:36:02;101759.44;;;17.95;48.04
5812;BME280;2932;52.400;9.558;2024-03-17T09:42:05;101758.59;;;18.56;47.06
5812;BME280;2932;52.400;9.558;2024-03-17T09:44:43;101757.88;;;18.59;46.66
5812;BME280;2932;52.400;9.558;2024-03-17T09:51:07;101768.34;;;18.20;46.71
5812;BME280;2932;52.400;9.558;2024-03-17T09:54:00;101756.47;;;18.26;46.80
5812;BME280;2932;52.400;9.558;2024-03-17T09:56:33;101749.09;;;18.18;47.20
5812;BME280;2932;52.400;9.558;2024-03-17T09:59:36;101753.66;;;18.26;46.55
5812;BME280;2932;52.400;9.558;2024-03-17T10:02:01;101758.41;;;18.03;46.92
5812;BME280;2932;52.400;9.558;2024-03-17T10:04:41;101753.09;;;18.17;47.18
5812;BME280;2932;52.400;9.558;2024-03-17T10:07:12;101742.88;;;18.71;46.91
5812;BME280;2932;52.400;9.558;2024-03-17T10:09:37;101743.91;;;19.08;45.78
5812;BME280;2932;52.400;9.558;2024-03-17T10:12:27;101739.19;;;19.42;46.07
5812;BME280;2932;52.400;9.558;2024-03-17T10:14:59;101739.81;;;19.55;45.61
5812;BME280;2932;52.400;9.558;2024-03-17T10:17:32;101736.81;;;19.71;44.87
5812;BME280;2932;52.400;9.558;2024-03-17T10:20:17;101736.91;;;19.78;44.48
5812;BME280;2932;52.400;9.558;2024-03-17T10:23:06;101729.47;;;19.92;44.35
5812;BME280;2932;52.400;9.558;2024-03-17T10:25:42;101734.50;;;20.13;44.09
5812;BME280;2932;52.400;9.558;2024-03-17T10:28:12;101739.19;;;20.36;43.60
5812;BME280;2932;52.400;9.558;2024-03-17T10:30:38;101742.09;;;20.46;43.18
5812;BME280;2932;52.400;9.558;2024-03-17T10:33:05;101741.97;;;20.73;42.72
5812;BME280;2932;52.400;9.558;2024-03-17T10:38:02;101750.63;;;21.59;42.07
5812;BME280;2932;52.400;9.558;2024-03-17T10:40:30;101751.84;;;21.62;41.77
5812;BME280;2932;52.400;9.558;2024-03-17T10:42:57;101748.56;;;21.46;41.03
5812;BME280;2932;52.400;9.558;2024-03-17T10:45:25;101752.50;;;21.34;41.35
5812;BME280;2932;52.400;9.558;2024-03-17T10:47:51;101747.75;;;21.45;40.95
5812;BME280;2932;52.400;9.558;2024-03-17T10:50:30;101746.56;;;21.46;41.17
5812;BME280;2932;52.400;9.558;2024-03-17T10:53:01;101741.41;;;21.59;41.06
5812;BME280;2932;52.400;9.558;2024-03-17T10:55:31;101739.91;;;21.86;40.79
5812;BME280;2932;52.400;9.558;2024-03-17T10:57:59;101733.59;;;22.21;40.01
5812;BME280;2932;52.400;9.558;2024-03-17T11:00:29;101732.00;;;22.20;39.78
5812;BME280;2932;52.400;9.558;2024-03-17T11:02:55;101728.78;;;22.22;39.11
5812;BME280;2932;52.400;9.558;2024-03-17T11:05:23;101733.66;;;22.36;39.40
5812;BME280;2932;52.400;9.558;2024-03-17T11:07:51;101724.19;;;21.85;40.15
5812;BME280;2932;52.400;9.558;2024-03-17T11:10:24;101723.25;;;22.79;40.11
5812;BME280;2932;52.400;9.558;2024-03-17T11:12:57;101707.88;;;23.12;39.28
5812;BME280;2932;52.400;9.558;2024-03-17T11:17:54;101719.59;;;23.00;39.05
5812;BME280;2932;52.400;9.558;2024-03-17T11:20:27;101715.16;;;22.88;39.42
5812;BME280;2932;52.400;9.558;2024-03-17T11:22:58;101712.63;;;23.43;38.97
5812;BME280;2932;52.400;9.558;2024-03-17T11:52:03;101680.75;;;23.50;38.64
5812;BME280;2932;52.400;9.558;2024-03-17T11:54:34;101678.78;;;24.20;37.80
5812;BME280;2932;52.400;9.558;2024-03-17T11:57:05;101688.00;;;24.38;36.84
5812;BME280;2932;52.400;9.558;2024-03-17T11:59:37;101678.56;;;24.52;36.52
5812;BME280;2932;52.400;9.558;2024-03-17T12:02:10;101681.41;;;24.52;36.74
5812;BME280;2932;52.400;9.558;2024-03-17T12:04:42;101674.66;;;24.39;37.16
5812;BME280;2932;52.400;9.558;2024-03-17T12:07:12;101678.63;;;24.45;36.30
5812;BME280;2932;52.400;9.558;2024-03-17T12:09:41;101671.19;;;24.65;36.42
5812;BME280;2932;52.400;9.558;2024-03-17T12:14:39;101662.44;;;25.65;34.78
5812;BME280;2932;52.400;9.558;2024-03-17T12:17:07;101664.19;;;25.55;35.06
5812;BME280;2932;52.400;9.558;2024-03-17T12:19:33;101657.94;;;25.37;35.04
5812;BME280;2932;52.400;9.558;2024-03-17T12:22:00;101642.19;;;25.97;34.08
5812;BME280;2932;52.400;9.558;2024-03-17T12:24:27;101651.06;;;25.99;34.10
5812;BME280;2932;52.400;9.558;2024-03-17T12:26:55;101646.34;;;25.89;34.73
5812;BME280;2932;52.400;9.558;2024-03-17T12:31:54;101637.84;;;26.66;34.06
5812;BME280;2932;52.400;9.558;2024-03-17T12:34:20;101626.22;;;27.04;33.15
5812;BME280;2932;52.400;9.558;2024-03-17T12:36:46;101623.22;;;26.87;33.33
5812;BME280;2932;52.400;9.558;2024-03-17T12:39:21;101627.81;;;27.05;32.92
5812;BME280;2932;52.400;9.558;2024-03-17T12:42:06;101626.50;;;27.29;33.04
5812;BME280;2932;52.400;9.558;2024-03-17T12:44:59;101624.97;;;27.44;33.40
5812;BME280;2932;52.400;9.558;2024-03-17T12:47:29;101624.94;;;28.00;32.45
5812;BME280;2932;52.400;9.558;2024-03-17T12:49:57;101623.13;;;28.42;31.89
5812;BME280;2932;52.400;9.558;2024-03-17T12:57:50;101615.81;;;29.32;31.29
5812;BME280;2932;52.400;9.558;2024-03-17T13:25:45;101615.25;;;30.89;29.95
5812;BME280;2932;52.400;9.558;2024-03-17T13:35:54;101606.03;;;31.50;30.05
5812;BME280;2932;52.400;9.558;2024-03-17T14:09:14;101576.00;;;28.25;31.61
5812;BME280;2932;52.400;9.558;2024-03-17T14:11:54;101571.81;;;28.30;31.26
5812;BME280;2932;52.400;9.558;2024-03-17T14:14:21;101572.06;;;27.86;31.33
5812;BME280;2932;52.400;9.558;2024-03-17T14:16:55;101575.22;;;27.72;32.04
5812;BME280;2932;52.400;9.558;2024-03-17T14:19:32;101580.03;;;27.00;31.96
5812;BME280;2932;52.400;9.558;2024-03-17T14:22:02;101575.63;;;26.52;33.04
5812;BME280;2932;52.400;9.558;2024-03-17T14:25:09;101570.75;;;25.48;33.81
5812;BME280;2932;52.400;9.558;2024-03-17T14:27:52;101574.78;;;24.79;34.51
5812;BME280;2932;52.400;9.558;2024-03-17T14:30:41;101570.03;;;24.32;35.08
5812;BME280;2932;52.400;9.558;2024-03-17T14:33:33;101567.78;;;24.05;35.46
5812;BME280;2932;52.400;9.558;2024-03-17T14:36:30;101559.13;;;23.75;35.90
5812;BME280;2932;52.400;9.558;2024-03-17T14:38:58;101560.31;;;23.77;36.10
5812;BME280;2932;52.400;9.558;2024-03-17T14:41:28;101558.88;;;23.48;36.43
5812;BME280;2932;52.400;9.558;2024-03-17T14:44:13;101556.13;;;23.34;36.10
5812;BME280;2932;52.400;9.558;2024-03-17T14:46:48;101550.47;;;23.34;36.28
5812;BME280;2932;52.400;9.558;2024-03-17T14:49:21;101548.16;;;23.18;36.63
5812;BME280;2932;52.400;9.558;2024-03-17T14:51:49;101545.72;;;23.16;36.63
5812;BME280;2932;52.400;9.558;2024-03-17T14:54:14;101545.38;;;22.97;36.81
5812;BME280;2932;52.400;9.558;2024-03-17T14:56:40;101546.16;;;23.11;36.55
5812;BME280;2932;52.400;9.558;2024-03-17T14:59:08;101552.28;;;22.78;36.85
5812;BME280;2932;52.400;9.558;2024-03-17T15:01:43;101535.31;;;22.99;36.84
5812;BME280;2932;52.400;9.558;2024-03-17T15:04:27;101535.34;;;22.88;37.26
5812;BME280;2932;52.400;9.558;2024-03-17T15:07:10;101531.25;;;23.00;37.53
5812;BME280;2932;52.400;9.558;2024-03-17T15:09:36;101528.69;;;23.31;37.12
5812;BME280;2932;52.400;9.558;2024-03-17T15:12:17;101527.19;;;23.15;37.05
5812;BME280;2932;52.400;9.558;2024-03-17T15:14:46;101519.84;;;23.25;37.10
5812;BME280;2932;52.400;9.558;2024-03-17T15:17:19;101514.13;;;23.39;37.15
5812;BME280;2932;52.400;9.558;2024-03-17T15:19:47;101525.59;;;23.07;37.04
5812;BME280;2932;52.400;9.558;2024-03-17T15:22:13;101523.25;;;22.84;37.39
5812;BME280;2932;52.400;9.558;2024-03-17T15:24:38;101524.94;;;22.50;37.81
5812;BME280;2932;52.400;9.558;2024-03-17T15:27:06;101522.53;;;22.41;37.92
5812;BME280;2932;52.400;9.558;2024-03-17T15:29:32;101523.38;;;22.13;38.06
5812;BME280;2932;52.400;9.558;2024-03-17T15:31:58;101515.31;;;22.08;38.32
5812;BME280;2932;52.400;9.558;2024-03-17T15:34:32;101529.34;;;21.69;38.56
5812;BME280;2932;52.400;9.558;2024-03-17T15:37:01;101517.22;;;21.37;38.71
5812;BME280;2932;52.400;9.558;2024-03-17T15:39:38;101516.44;;;21.36;39.05
5812;BME280;2932;52.400;9.558;2024-03-17T15:42:16;101505.97;;;21.33;39.50
5812;BME280;2932;52.400;9.558;2024-03-17T15:44:45;101508.72;;;21.15;39.94
5812;BME280;2932;52.400;9.558;2024-03-17T15:47:11;101516.69;;;20.99;39.87
5812;BME280;2932;52.400;9.558;2024-03-17T15:49:39;101509.44;;;21.02;39.87
5812;BME280;2932;52.400;9.558;2024-03-17T15:52:15;101504.53;;;20.84;39.97
5812;BME280;2932;52.400;9.558;2024-03-17T15:54:48;101498.94;;;20.91;39.96
5812;BME280;2932;52.400;9.558;2024-03-17T15:57:19;101497.69;;;20.75;40.14
5812;BME280;2932;52.400;9.558;2024-03-17T16:00:23;101497.31;;;20.83;40.74
5812;BME280;2932;52.400;9.558;2024-03-17T16:02:59;101493.31;;;20.88;40.35
5812;BME280;2932;52.400;9.558;2024-03-17T16:05:34;101490.22;;;20.35;40.60
5812;BME280;2932;52.400;9.558;2024-03-17T16:07:59;101489.75;;;20.29;40.68
5812;BME280;2932;52.400;9.558;2024-03-17T16:10:31;101488.25;;;20.39;40.63
5812;BME280;2932;52.400;9.558;2024-03-17T16:13:01;101494.78;;;19.98;41.30
5812;BME280;2932;52.400;9.558;2024-03-17T16:15:36;101485.56;;;20.05;41.19
5812;BME280;2932;52.400;9.558;2024-03-17T16:18:09;101485.97;;;20.07;41.21
5812;BME280;2932;52.400;9.558;2024-03-17T16:23:40;101478.53;;;20.33;41.02
5812;BME280;2932;52.400;9.558;2024-03-17T16:26:10;101476.16;;;20.35;40.80
5812;BME280;2932;52.400;9.558;2024-03-17T16:28:59;101478.38;;;20.11;41.39
5812;BME280;2932;52.400;9.558;2024-03-17T16:31:27;101467.34;;;20.36;41.64
5812;BME280;2932;52.400;9.558;2024-03-17T16:33:53;101472.25;;;20.50;41.36
5812;BME280;2932;52.400;9.558;2024-03-17T16:36:37;101465.84;;;20.56;41.53
5812;BME280;2932;52.400;9.558;2024-03-17T16:39:11;101467.34;;;20.40;41.79
5812;BME280;2932;52.400;9.558;2024-03-17T16:41:37;101468.88;;;20.26;42.54
5812;BME280;2932;52.400;9.558;2024-03-17T16:46:54;101463.94;;;20.13;42.36
5812;BME280;2932;52.400;9.558;2024-03-17T16:49:37;101463.06;;;19.98;42.48
5812;BME280;2932;52.400;9.558;2024-03-17T16:52:10;101466.47;;;19.74;42.64
5812;BME280;2932;52.400;9.558;2024-03-17T16:54:57;101470.78;;;19.64;43.25
5812;BME280;2932;52.400;9.558;2024-03-17T17:21:33;101472.63;;;19.09;43.97
5812;BME280;2932;52.400;9.558;2024-03-17T17:24:18;101458.16;;;19.07;43.68
5812;BME280;2932;52.400;9.558;2024-03-17T17:26:45;101471.97;;;18.89;44.07
5812;BME280;2932;52.400;9.558;2024-03-17T17:29:11;101478.00;;;18.31;45.09
5812;BME280;2932;52.400;9.558;2024-03-17T17:31:37;101473.59;;;18.90;44.63
5812;BME280;2932;52.400;9.558;2024-03-17T17:34:02;101474.06;;;18.95;44.46
5812;BME280;2932;52.400;9.558;2024-03-17T17:36:28;101471.81;;;19.08;44.17
5812;BME280;2932;52.400;9.558;2024-03-17T17:38:54;101468.03;;;18.93;44.01
5812;BME280;2932;52.400;9.558;2024-03-17T17:41:28;101468.19;;;19.08;44.23
5812;BME280;2932;52.400;9.558;2024-03-17T17:43:54;101463.44;;;18.78;43.96
5812;BME280;2932;52.400;9.558;2024-03-17T17:46:23;101464.81;;;18.61;44.36
5812;BME280;2932;52.400;9.558;2024-03-17T17:48:56;101464.16;;;18.72;44.08
5812;BME280;2932;52.400;9.558;2024-03-17T17:51:22;101461.69;;;18.40;44.34
5812;BME280;2932;52.400;9.558;2024-03-17T17:54:01;101466.25;;;18.52;44.03
5812;BME280;2932;52.400;9.558;2024-03-17T17:56:28;101466.44;;;18.62;43.88
5812;BME280;2932;52.400;9.558;2024-03-17T17:58:56;101459.41;;;18.49;43.55
5812;BME280;2932;52.400;9.558;2024-03-17T18:01:21;101461.41;;;18.49;43.90
5812;BME280;2932;52.400;9.558;2024-03-17T18:03:47;101467.66;;;18.35;44.04
5812;BME280;2932;52.400;9.558;2024-03-17T18:06:14;101465.91;;;18.27;44.06
5812;BME280;2932;52.400;9.558;2024-03-17T18:08:41;101460.81;;;18.32;43.64
5812;BME280;2932;52.400;9.558;2024-03-17T18:11:09;101469.28;;;18.40;44.09
5812;BME280;2932;52.400;9.558;2024-03-17T18:13:34;101460.66;;;18.52;43.68
5812;BME280;2932;52.400;9.558;2024-03-17T18:16:01;101468.44;;;18.36;43.53
5812;BME280;2932;52.400;9.558;2024-03-17T18:18:28;101468.22;;;18.21;43.71
5812;BME280;2932;52.400;9.558;2024-03-17T18:20:55;101463.50;;;18.25;43.50
5812;BME280;2932;52.400;9.558;2024-03-17T18:23:21;101460.81;;;18.32;43.80
5812;BME280;2932;52.400;9.558;2024-03-17T18:25:50;101463.44;;;18.22;43.64
5812;BME280;2932;52.400;9.558;2024-03-17T18:28:17;101452.91;;;18.42;43.66
5812;BME280;2932;52.400;9.558;2024-03-17T18:30:43;101469.84;;;18.22;43.41